Time;durP1;ratioP1;P1;durP2;ratioP2;P2;SDS_P1;SDS_P2;PMS_P1;PMS_P2;Temp;Humidity;BMP_temperature;BMP_pressure;BME280_temperature;BME280_humidity;BME280_pressure;Samples;Min_cycle;Max_cycle;Signal;HPM_P1;HPM_P2
2023/07/21 00:01:27;;;;;;;0.90;0.40;;;;;;;26.93;70.12;95008.09;5081829;28;20493;-49
2023/07/21 00:03:56;;;;;;;0.60;0.40;;;;;;;26.96;69.44;95009.28;5085483;28;20472;-49
2023/07/21 00:06:26;;;;;;;0.70;0.60;;;;;;;26.90;69.61;95005.34;5092274;28;20515;-49
2023/07/21 00:08:55;;;;;;;0.40;0.40;;;;;;;26.89;70.89;94999.13;5092222;28;20458;-49
2023/07/21 00:11:23;;;;;;;0.60;0.50;;;;;;;26.92;70.73;95008.47;5091989;28;21090;-49
2023/07/21 00:13:51;;;;;;;0.40;0.30;;;;;;;26.81;70.54;95007.63;5091750;28;20504;-48
2023/07/21 00:16:20;;;;;;;0.40;0.20;;;;;;;26.82;70.92;95001.03;5092714;28;20505;-48
2023/07/21 00:18:48;;;;;;;1.53;0.33;;;;;;;26.80;71.00;95006.06;5085910;28;20438;-48
2023/07/21 00:21:17;;;;;;;0.83;0.50;;;;;;;26.81;71.51;94996.75;5085407;28;20606;-48
2023/07/21 00:23:47;;;;;;;0.40;0.30;;;;;;;26.78;71.29;94997.50;5092500;28;20897;-48
2023/07/21 00:26:16;;;;;;;0.47;0.40;;;;;;;26.76;71.64;94994.38;5092054;28;20489;-48
2023/07/21 00:28:45;;;;;;;0.40;0.30;;;;;;;26.76;71.05;95005.25;5091680;28;20538;-48
2023/07/21 00:31:14;;;;;;;0.87;0.70;;;;;;;26.76;72.38;95006.06;5091960;28;20445;-48
2023/07/21 00:33:42;;;;;;;0.40;0.20;;;;;;;26.67;71.80;95002.84;5092093;28;20482;-48
2023/07/21 00:36:12;;;;;;;6.03;0.50;;;;;;;26.60;71.75;94996.59;5091871;28;20852;-48
2023/07/21 00:38:41;;;;;;;0.90;0.90;;;;;;;26.66;72.26;94997.81;5091866;28;20445;-49
2023/07/21 00:41:10;;;;;;;0.50;0.50;;;;;;;26.68;71.38;94998.19;5091534;28;20447;-48
2023/07/21 00:43:39;;;;;;;0.67;0.60;;;;;;;26.65;71.65;94996.22;5091868;28;20437;-48
2023/07/21 00:46:07;;;;;;;0.50;0.50;;;;;;;26.57;71.78;94994.63;5086960;28;20477;-48
2023/07/21 00:48:36;;;;;;;4.60;0.67;;;;;;;26.03;71.43;95001.56;5084107;28;20444;-48
2023/07/21 00:51:06;;;;;;;1.00;0.77;;;;;;;26.19;73.70;94987.75;5091693;28;20440;-48
2023/07/21 00:53:35;;;;;;;0.40;0.40;;;;;;;26.35;72.72;94994.50;5091828;28;20482;-49
2023/07/21 00:56:05;;;;;;;0.50;0.40;;;;;;;26.35;73.36;95008.06;5091625;28;20443;-48
2023/07/21 00:58:36;;;;;;;1.47;0.30;;;;;;;26.36;72.49;94993.31;5091955;28;20467;-48
2023/07/21 01:01:05;;;;;;;0.60;0.57;;;;;;;26.40;73.67;94988.69;5091723;28;20869;-49
2023/07/21 01:03:35;;;;;;;0.67;0.50;;;;;;;26.49;73.53;94993.78;5091277;28;21009;-49
2023/07/21 01:06:04;;;;;;;2.93;0.50;;;;;;;26.55;73.20;94997.72;5091764;28;20523;-49
2023/07/21 01:08:33;;;;;;;0.57;0.57;;;;;;;26.54;72.29;95009.75;5091452;28;20460;-49
2023/07/21 01:11:02;;;;;;;0.63;0.63;;;;;;;26.55;72.90;94999.66;5091536;28;20477;-48
2023/07/21 01:13:31;;;;;;;0.60;0.50;;;;;;;26.20;71.40;94998.25;5091269;28;20468;-48
2023/07/21 01:16:03;;;;;;;0.67;0.57;;;;;;;26.12;73.02;95004.78;5091300;28;20447;-48
2023/07/21 01:18:32;;;;;;;1.17;0.50;;;;;;;26.29;73.75;94993.25;5091089;28;20428;-48
2023/07/21 01:21:02;;;;;;;0.80;0.80;;;;;;;26.37;73.15;94994.88;5091853;28;20836;-48
2023/07/21 01:23:38;;;;;;;0.90;0.43;;;;;;;26.33;72.87;94999.53;5091268;28;20494;-48
2023/07/21 01:26:10;;;;;;;0.40;0.30;;;;;;;26.37;73.32;95005.75;5091249;28;20537;-48
2023/07/21 01:28:40;;;;;;;1.93;0.37;;;;;;;26.42;73.52;95005.41;5091587;28;20447;-48
2023/07/21 01:31:09;;;;;;;0.63;0.40;;;;;;;26.47;72.99;95005.06;5091126;28;20938;-49
2023/07/21 01:33:38;;;;;;;1.13;0.43;;;;;;;26.44;72.78;95008.50;5091371;28;20545;-49
2023/07/21 01:36:08;;;;;;;0.93;0.93;;;;;;;26.19;72.23;95006.75;5091375;28;20450;-50
2023/07/21 01:38:38;;;;;;;0.50;0.40;;;;;;;26.30;74.23;95002.19;5091672;28;20437;-50
2023/07/21 01:41:08;;;;;;;7.03;0.57;;;;;;;26.38;73.58;95001.91;5095169;28;20443;-50
2023/07/21 01:43:38;;;;;;;0.90;0.40;;;;;;;26.41;73.36;94992.97;5095302;28;20479;-50
2023/07/21 01:46:10;;;;;;;0.60;0.40;;;;;;;26.32;73.93;94987.09;5095211;28;20440;-50
2023/07/21 01:48:39;;;;;;;0.60;0.60;;;;;;;26.34;73.92;94995.63;5095162;28;20436;-50
2023/07/21 01:51:07;;;;;;;0.40;0.30;;;;;;;26.33;73.62;94991.38;5094703;28;20498;-50
2023/07/21 01:53:38;;;;;;;0.80;0.40;;;;;;;26.24;74.60;94993.63;5094181;28;20500;-50
2023/07/21 01:56:13;;;;;;;0.50;0.30;;;;;;;26.06;74.69;95000.03;5069860;28;20444;-50
2023/07/21 01:58:44;;;;;;;0.40;0.40;;;;;;;26.11;75.50;95007.84;5094218;28;20482;-50
2023/07/21 02:01:14;;;;;;;0.67;0.50;;;;;;;26.10;75.42;95009.78;5094486;28;20874;-50
2023/07/21 02:03:45;;;;;;;1.23;0.87;;;;;;;26.10;75.91;95020.66;5094358;28;20512;-50
2023/07/21 02:06:14;;;;;;;2.60;0.50;;;;;;;26.00;73.29;95006.97;5095057;28;20472;-50
2023/07/21 02:08:44;;;;;;;0.43;0.33;;;;;;;26.00;76.12;95023.25;5094889;28;20443;-50
2023/07/21 02:11:14;;;;;;;0.70;0.70;;;;;;;25.92;75.80;95027.84;5082688;28;20974;-50
2023/07/21 02:13:43;;;;;;;5.00;1.27;;;;;;;25.95;78.06;95029.81;5093490;28;20468;-50
2023/07/21 02:16:11;;;;;;;0.40;0.30;;;;;;;25.84;77.02;95035.13;5094525;28;20529;-50
2023/07/21 02:18:43;;;;;;;1.17;1.17;;;;;;;25.45;77.91;95036.63;5094105;28;20460;-50
2023/07/21 02:21:11;;;;;;;2.10;1.27;;;;;;;24.89;81.15;95036.69;5094338;28;20448;-50
2023/07/21 02:23:40;;;;;;;0.43;0.43;;;;;;;25.02;81.11;95043.44;5094464;28;20478;-50
2023/07/21 02:26:08;;;;;;;0.97;0.97;;;;;;;25.17;81.71;95030.84;5094552;28;20428;-53
2023/07/21 02:28:38;;;;;;;0.80;0.80;;;;;;;25.05;84.10;95037.28;5094041;28;20523;-50
2023/07/21 02:31:06;;;;;;;0.73;0.67;;;;;;;25.06;83.99;95041.56;5093798;28;20436;-50
2023/07/21 02:33:35;;;;;;;0.70;0.40;;;;;;;24.88;85.26;95028.91;5094022;28;20920;-50
2023/07/21 02:36:05;;;;;;;0.50;0.40;;;;;;;25.07;87.24;95031.50;5094044;28;20436;-50
2023/07/21 02:38:33;;;;;;;0.50;0.40;;;;;;;25.05;84.66;95033.78;5094451;28;20439;-50
2023/07/21 02:41:05;;;;;;;0.70;0.70;;;;;;;24.95;87.14;95029.00;5094251;28;20471;-50
2023/07/21 02:43:34;;;;;;;0.50;0.50;;;;;;;25.14;86.56;95035.09;5093924;28;21014;-50
2023/07/21 02:46:04;;;;;;;5.93;0.70;;;;;;;25.27;86.21;95035.63;5093675;28;20462;-50
2023/07/21 02:48:34;;;;;;;8.03;0.87;;;;;;;25.25;85.42;95038.69;5093675;28;20444;-50
2023/07/21 02:51:03;;;;;;;0.40;0.30;;;;;;;25.16;86.14;95043.63;5093794;28;20847;-50
2023/07/21 02:53:31;;;;;;;0.93;0.93;;;;;;;25.20;86.81;95043.66;5080331;28;20961;-50
2023/07/21 02:56:01;;;;;;;0.90;0.50;;;;;;;25.24;87.42;95039.09;5080767;28;20494;-50
2023/07/21 02:58:29;;;;;;;0.50;0.30;;;;;;;25.31;85.55;95046.50;5091253;28;20437;-50
2023/07/21 03:00:59;;;;;;;0.50;0.50;;;;;;;25.27;84.57;95052.66;5093721;28;20491;-50
2023/07/21 03:03:29;;;;;;;0.60;0.40;;;;;;;25.22;85.88;95055.72;5093607;28;20480;-50
2023/07/21 03:05:58;;;;;;;0.60;0.60;;;;;;;25.17;86.56;95064.16;5093675;28;20440;-50
2023/07/21 03:08:28;;;;;;;2.40;0.83;;;;;;;25.11;86.81;95071.09;5093419;28;20472;-50
2023/07/21 03:10:58;;;;;;;0.60;0.30;;;;;;;25.16;87.28;95067.25;5093632;28;20949;-50
2023/07/21 03:13:26;;;;;;;0.50;0.50;;;;;;;25.14;86.84;95075.78;5093527;28;20433;-50
2023/07/21 03:15:55;;;;;;;1.83;0.60;;;;;;;25.05;87.14;95075.25;5093816;28;20472;-50
2023/07/21 03:18:28;;;;;;;0.90;0.67;;;;;;;24.62;86.64;95078.44;5079813;28;20437;-50
2023/07/21 03:21:00;;;;;;;0.60;0.57;;;;;;;24.89;90.61;95073.88;5093034;28;20436;-50
2023/07/21 03:23:28;;;;;;;0.67;0.40;;;;;;;24.94;89.05;95066.19;5093091;28;20444;-50
2023/07/21 03:25:57;;;;;;;1.33;1.23;;;;;;;25.07;88.98;95072.94;5093199;28;20448;-50
2023/07/21 03:28:26;;;;;;;0.70;0.60;;;;;;;25.02;87.81;95073.25;5092878;28;20516;-50
2023/07/21 03:30:58;;;;;;;1.00;0.50;;;;;;;24.99;88.00;95068.59;5093091;28;20505;-50
2023/07/21 03:33:27;;;;;;;0.60;0.60;;;;;;;25.01;88.05;95077.13;5093426;28;20445;-50
2023/07/21 03:36:01;;;;;;;0.50;0.30;;;;;;;25.13;87.82;95074.19;5092604;28;20992;-51
2023/07/21 03:38:30;;;;;;;0.60;0.50;;;;;;;25.08;86.74;95073.72;5093050;28;20438;-51
2023/07/21 03:41:02;;;;;;;0.63;0.63;;;;;;;25.09;86.80;95076.09;5092383;28;20452;-48
2023/07/21 03:43:31;;;;;;;0.50;0.40;;;;;;;25.03;86.35;95074.84;5092608;28;20448;-48
2023/07/21 03:46:00;;;;;;;0.73;0.57;;;;;;;25.08;85.18;95087.28;5093094;28;20968;-49
2023/07/21 03:48:29;;;;;;;0.97;0.50;;;;;;;25.13;87.42;95087.75;5092479;28;20898;-50
2023/07/21 03:50:58;;;;;;;2.73;0.43;;;;;;;25.13;86.65;95090.47;5092110;28;20432;-50
2023/07/21 03:53:29;;;;;;;5.00;0.60;;;;;;;25.13;86.01;95090.47;5092624;28;20436;-50
2023/07/21 03:56:05;;;;;;;0.67;0.47;;;;;;;24.99;85.79;95101.13;5092212;28;20476;-50
2023/07/21 03:58:33;;;;;;;2.00;1.40;;;;;;;24.66;88.02;95098.28;5092595;28;20440;-50
2023/07/21 04:01:02;;;;;;;0.53;0.43;;;;;;;24.89;88.57;95107.19;5092273;28;20472;-50
2023/07/21 04:03:30;;;;;;;0.60;0.60;;;;;;;24.98;87.83;95106.91;5091417;28;20944;-50
2023/07/21 04:06:07;;;;;;;1.00;0.60;;;;;;;25.14;87.41;95107.53;5092428;28;20463;-50
2023/07/21 04:08:37;;;;;;;0.87;0.60;;;;;;;25.14;84.27;95116.47;5092715;28;20832;-50
2023/07/21 04:11:06;;;;;;;0.60;0.40;;;;;;;25.00;87.72;95118.94;5092609;28;20472;-50
2023/07/21 04:13:34;;;;;;;0.60;0.60;;;;;;;25.03;86.90;95117.44;5092306;28;20502;-50
2023/07/21 04:16:02;;;;;;;2.50;0.67;;;;;;;25.20;86.23;95106.84;5092605;28;20481;-50
2023/07/21 04:18:31;;;;;;;0.47;0.37;;;;;;;25.24;85.91;95115.81;5091792;28;20441;-49
2023/07/21 04:20:59;;;;;;;0.97;0.97;;;;;;;25.28;86.23;95121.28;5092297;28;20439;-50
2023/07/21 04:23:27;;;;;;;2.83;0.93;;;;;;;25.33;84.83;95115.53;5091625;28;20432;-50
2023/07/21 04:25:58;;;;;;;1.90;0.80;;;;;;;25.41;85.00;95116.41;5092058;28;20948;-49
2023/07/21 04:28:26;;;;;;;0.40;0.40;;;;;;;25.43;84.64;95120.31;5091764;28;20980;-49
2023/07/21 04:30:56;;;;;;;1.90;0.83;;;;;;;25.46;83.48;95121.53;5091140;28;20497;-49
2023/07/21 04:33:24;;;;;;;0.60;0.40;;;;;;;25.57;83.83;95125.19;5092174;28;20452;-49
2023/07/21 04:35:52;;;;;;;0.87;0.50;;;;;;;25.65;82.74;95126.84;5078174;28;20503;-49
2023/07/21 04:38:22;;;;;;;0.50;0.30;;;;;;;25.79;81.86;95127.00;5091702;28;20918;-49
2023/07/21 04:40:50;;;;;;;0.50;0.40;;;;;;;25.81;78.02;95124.69;5089727;28;20483;-49
2023/07/21 04:43:20;;;;;;;1.43;1.20;;;;;;;25.47;79.82;95133.97;5081179;28;20821;-49
2023/07/21 04:45:48;;;;;;;2.50;0.80;;;;;;;25.13;82.27;95136.59;5091791;28;20425;-49
2023/07/21 04:48:17;;;;;;;0.50;0.50;;;;;;;25.39;81.29;95129.56;5092092;28;20463;-49
2023/07/21 04:50:52;;;;;;;2.60;1.23;;;;;;;25.41;82.35;95128.06;5091608;28;20433;-49
2023/07/21 04:53:21;;;;;;;0.60;0.47;;;;;;;25.48;81.59;95133.59;5091960;28;20514;-49
2023/07/21 04:55:49;;;;;;;0.63;0.60;;;;;;;25.03;87.53;95139.91;5091493;28;21063;-49
2023/07/21 04:58:17;;;;;;;1.10;1.00;;;;;;;24.96;89.45;95139.03;5091869;28;20493;-49
2023/07/21 05:00:47;;;;;;;2.63;1.30;;;;;;;25.00;89.93;95137.16;5091055;28;20502;-49
2023/07/21 05:03:16;;;;;;;0.67;0.50;;;;;;;25.24;85.27;95132.09;5091491;28;20494;-49
2023/07/21 05:05:46;;;;;;;0.70;0.50;;;;;;;25.55;83.90;95144.53;5091586;28;20951;-49
2023/07/21 05:08:14;;;;;;;0.70;0.70;;;;;;;25.50;82.79;95141.38;5090980;28;20767;-49
2023/07/21 05:10:43;;;;;;;0.53;0.40;;;;;;;25.85;81.01;95139.91;5091984;28;20445;-49
2023/07/21 05:13:11;;;;;;;1.00;0.80;;;;;;;26.11;80.30;95154.53;5090108;28;20494;-50
2023/07/21 05:15:39;;;;;;;0.50;0.47;;;;;;;26.30;78.86;95146.22;5084817;28;20537;-50
2023/07/21 05:18:10;;;;;;;0.43;0.43;;;;;;;26.40;77.91;95149.03;5095417;28;20499;-50
2023/07/21 05:20:41;;;;;;;0.50;0.30;;;;;;;26.45;73.85;95147.91;5095376;28;20501;-50
2023/07/21 05:23:11;;;;;;;1.17;0.70;;;;;;;26.35;76.86;95152.09;5095579;28;20489;-50
2023/07/21 05:25:40;;;;;;;0.50;0.50;;;;;;;26.45;75.67;95154.13;5095849;28;20835;-50
2023/07/21 05:28:08;;;;;;;0.77;0.70;;;;;;;26.74;75.69;95144.28;5095081;28;20440;-50
2023/07/21 05:30:36;;;;;;;0.70;0.70;;;;;;;26.88;72.19;95154.53;5095756;28;20440;-50
2023/07/21 05:33:05;;;;;;;0.40;0.37;;;;;;;26.96;72.00;95145.28;5095693;28;20439;-50
2023/07/21 05:35:34;;;;;;;2.00;0.97;;;;;;;27.15;72.84;95144.25;5095229;28;20533;-50
2023/07/21 05:38:03;;;;;;;3.37;0.60;;;;;;;27.18;70.19;95146.97;5095538;28;20448;-51
2023/07/21 05:40:31;;;;;;;0.50;0.50;;;;;;;27.04;71.66;95147.66;5095645;28;21005;-51
2023/07/21 05:42:59;;;;;;;0.70;0.70;;;;;;;26.98;69.15;95143.75;5095534;28;20882;-51
2023/07/21 05:45:28;;;;;;;0.63;0.63;;;;;;;26.88;69.32;95128.13;5081648;28;20445;-51
2023/07/21 05:47:56;;;;;;;0.67;0.50;;;;;;;27.08;70.66;95145.75;5069732;28;20440;-51
2023/07/21 05:50:25;;;;;;;0.83;0.70;;;;;;;27.08;69.48;95136.81;5094663;28;20513;-52
2023/07/21 05:52:55;;;;;;;0.93;0.90;;;;;;;27.39;68.31;95144.44;5094864;28;20967;-52
2023/07/21 05:55:23;;;;;;;0.83;0.83;;;;;;;27.73;67.31;95148.47;5095124;28;20451;-52
2023/07/21 05:57:51;;;;;;;0.50;0.50;;;;;;;27.68;67.57;95151.56;5094240;28;20948;-53
2023/07/21 06:00:20;;;;;;;0.80;0.80;;;;;;;27.95;67.48;95145.84;5081122;28;20584;-53
2023/07/21 06:02:48;;;;;;;7.50;0.77;;;;;;;27.53;69.00;95152.66;5095275;28;20440;-53
2023/07/21 06:05:17;;;;;;;1.07;1.07;;;;;;;26.82;69.13;95145.16;5094753;28;20453;-53
2023/07/21 06:07:45;;;;;;;5.33;3.77;;;;;;;26.65;71.02;95151.19;5094685;28;20819;-53
2023/07/21 06:10:15;;;;;;;7.50;1.40;;;;;;;26.71;71.67;95150.50;5094140;28;20869;-54
2023/07/21 06:12:44;;;;;;;0.80;0.77;;;;;;;26.87;72.43;95151.03;5094279;28;20468;-53
2023/07/21 06:15:12;;;;;;;4.63;1.63;;;;;;;26.82;72.76;95153.31;5094306;28;20444;-53
2023/07/21 06:17:40;;;;;;;1.53;1.43;;;;;;;27.52;71.64;95153.06;5094801;28;20479;-53
2023/07/21 06:20:10;;;;;;;2.53;1.53;;;;;;;27.61;71.15;95158.94;5093832;28;20436;-53
2023/07/21 06:22:39;;;;;;;1.50;1.17;;;;;;;27.86;71.23;95153.59;5094436;28;20445;-53
2023/07/21 06:25:08;;;;;;;0.80;0.80;;;;;;;28.45;69.55;95155.75;5093354;28;20500;-54
2023/07/21 06:27:44;;;;;;;0.50;0.50;;;;;;;28.65;68.39;95145.28;5094229;28;20440;-53
2023/07/21 06:30:13;;;;;;;1.10;1.10;;;;;;;28.27;69.57;95138.56;5069010;28;20440;-53
2023/07/21 06:32:41;;;;;;;2.00;0.97;;;;;;;28.15;70.36;95144.38;5094212;28;20497;-54
2023/07/21 06:35:11;;;;;;;1.07;0.93;;;;;;;28.43;69.67;95146.41;5094423;28;20444;-53
2023/07/21 06:37:39;;;;;;;3.40;2.13;;;;;;;28.32;69.02;95140.91;5094329;28;20486;-53
2023/07/21 06:40:09;;;;;;;0.77;0.77;;;;;;;28.20;67.63;95092.22;5093122;28;20432;-53
2023/07/21 06:42:38;;;;;;;1.00;0.70;;;;;;;28.47;65.53;95139.00;5092904;28;20889;-54
2023/07/21 06:45:09;;;;;;;1.77;0.97;;;;;;;28.94;64.85;95136.72;5093355;28;20789;-54
2023/07/21 06:47:38;;;;;;;2.10;1.77;;;;;;;29.40;63.24;95133.94;5093369;28;20440;-54
2023/07/21 06:50:07;;;;;;;1.77;1.37;;;;;;;29.69;63.31;95139.34;5093540;28;20444;-53
2023/07/21 06:52:35;;;;;;;2.40;1.43;;;;;;;30.17;61.04;95143.06;5093385;28;20472;-54
2023/07/21 06:55:04;;;;;;;0.70;0.53;;;;;;;30.30;60.80;95130.50;5093412;28;20494;-54
2023/07/21 06:57:33;;;;;;;0.87;0.60;;;;;;;30.83;59.47;95137.59;5093217;28;20476;-53
2023/07/21 07:00:01;;;;;;;0.40;0.30;;;;;;;31.51;56.11;95133.88;5093582;28;20476;-53
2023/07/21 07:02:33;;;;;;;1.40;1.40;;;;;;;31.01;55.01;95130.81;5067438;28;20937;-53
2023/07/21 07:05:01;;;;;;;0.93;0.93;;;;;;;30.21;54.89;95132.88;5093087;28;20436;-53
2023/07/21 07:07:30;;;;;;;1.00;0.80;;;;;;;30.36;55.23;95134.38;5093261;28;20480;-53
2023/07/21 07:09:58;;;;;;;2.90;1.17;;;;;;;30.83;56.33;95134.84;5092942;28;20440;-53
2023/07/21 07:12:26;;;;;;;1.13;1.13;;;;;;;31.05;56.24;95134.28;5093438;28;20447;-53
2023/07/21 07:14:55;;;;;;;1.13;1.00;;;;;;;31.19;57.17;95130.66;5093093;28;20498;-53
2023/07/21 07:17:24;;;;;;;0.80;0.73;;;;;;;31.59;53.25;95127.16;5093036;28;20602;-53
2023/07/21 07:19:53;;;;;;;0.60;0.53;;;;;;;31.80;53.35;95123.38;5092370;28;20463;-52
2023/07/21 07:22:22;;;;;;;0.50;0.47;;;;;;;31.98;51.90;95129.41;5092917;28;20448;-52
2023/07/21 07:24:50;;;;;;;1.13;1.03;;;;;;;31.71;51.83;95126.59;5092541;28;20497;-52
2023/07/21 07:27:18;;;;;;;0.70;0.60;;;;;;;32.56;51.03;95120.81;5092848;28;20916;-53
2023/07/21 07:29:47;;;;;;;0.50;0.40;;;;;;;32.71;50.85;95120.63;5092002;28;20431;-53
2023/07/21 07:32:16;;;;;;;1.63;1.40;;;;;;;32.34;50.27;95135.22;5092842;28;20479;-53
2023/07/21 07:34:44;;;;;;;0.60;0.60;;;;;;;31.95;50.19;95131.00;5092719;28;20960;-53
2023/07/21 07:37:15;;;;;;;0.90;0.90;;;;;;;32.05;49.82;95123.88;5091764;28;20503;-54
2023/07/21 07:39:44;;;;;;;0.97;0.80;;;;;;;32.35;49.52;95121.13;5092856;28;20473;-54
2023/07/21 07:42:12;;;;;;;3.50;1.53;;;;;;;32.19;49.82;95125.66;5092676;28;20439;-54
2023/07/21 07:44:41;;;;;;;0.83;0.83;;;;;;;32.82;53.21;95126.69;5085784;28;20468;-53
2023/07/21 07:47:10;;;;;;;0.90;0.70;;;;;;;33.45;50.71;95116.63;5086108;28;21171;-53
2023/07/21 07:49:38;;;;;;;1.17;1.07;;;;;;;33.64;48.20;95116.69;5092677;28;20998;-54
2023/07/21 07:52:08;;;;;;;1.53;0.40;;;;;;;34.02;47.71;95069.56;5092342;28;20500;-54
2023/07/21 07:54:38;;;;;;;0.87;0.77;;;;;;;34.43;45.85;95111.88;5092539;28;20521;-54
2023/07/21 07:57:08;;;;;;;0.83;0.70;;;;;;;34.89;46.20;95112.84;5092408;28;20467;-53
2023/07/21 07:59:36;;;;;;;1.03;0.90;;;;;;;34.54;45.48;95114.41;5092143;28;20532;-52
2023/07/21 08:02:05;;;;;;;0.87;0.87;;;;;;;34.25;45.97;95114.28;5091993;28;20452;-52
2023/07/21 08:04:33;;;;;;;1.07;0.50;;;;;;;34.56;47.03;95111.25;5092359;28;20464;-53
2023/07/21 08:07:02;;;;;;;1.43;1.33;;;;;;;34.29;47.19;95109.47;5092114;28;20442;-53
2023/07/21 08:09:30;;;;;;;0.77;0.77;;;;;;;34.68;48.02;95107.81;5092336;28;20817;-53
2023/07/21 08:12:00;;;;;;;0.70;0.70;;;;;;;34.92;48.34;95109.19;5092439;28;20436;-53
2023/07/21 08:14:28;;;;;;;0.67;0.67;;;;;;;35.11;49.19;95111.13;5092557;28;20795;-53
2023/07/21 08:16:56;;;;;;;1.97;1.20;;;;;;;34.47;46.11;95120.84;5092037;28;20554;-53
2023/07/21 08:19:25;;;;;;;0.80;0.80;;;;;;;34.51;45.58;95117.25;5092503;28;20440;-53
2023/07/21 08:21:53;;;;;;;0.90;0.90;;;;;;;35.02;46.72;95114.44;5091459;28;20194;-53
2023/07/21 08:24:21;;;;;;;0.90;0.90;;;;;;;34.51;48.14;95118.00;5092004;28;20554;-52
2023/07/21 08:26:50;;;;;;;1.13;0.90;;;;;;;34.88;48.14;95109.31;5091776;28;20277;-53
2023/07/21 08:29:20;;;;;;;0.70;0.57;;;;;;;34.95;45.66;95113.84;5091490;28;20220;-54
2023/07/21 08:31:48;;;;;;;1.07;0.80;;;;;;;34.98;48.35;95118.50;5065665;28;20497;-53
2023/07/21 08:34:16;;;;;;;0.57;0.57;;;;;;;35.76;46.40;95114.53;5090961;28;20667;-54
2023/07/21 08:36:45;;;;;;;1.23;1.13;;;;;;;35.56;45.18;95113.91;5091620;28;20693;-53
2023/07/21 08:39:22;;;;;;;0.87;0.87;;;;;;;36.04;45.13;95107.47;5091648;28;20197;-54
2023/07/21 08:41:51;;;;;;;1.63;0.60;;;;;;;35.78;44.82;95117.63;5092115;28;20190;-53
2023/07/21 08:44:23;;;;;;;2.20;0.90;;;;;;;35.98;43.57;95118.22;5091487;28;20186;-53
2023/07/21 08:46:51;;;;;;;0.93;0.93;;;;;;;36.29;43.45;95105.50;5090932;28;20198;-53
2023/07/21 08:49:20;;;;;;;1.77;0.90;;;;;;;35.37;44.23;95112.03;5090891;28;20189;-53
2023/07/21 08:51:49;;;;;;;0.60;0.50;;;;;;;35.89;46.08;95106.28;5091374;28;20716;-53
2023/07/21 08:54:17;;;;;;;1.40;1.10;;;;;;;35.98;45.73;95103.66;5091669;28;20220;-53
2023/07/21 08:56:45;;;;;;;0.70;0.60;;;;;;;36.55;44.49;95106.34;5090815;28;20197;-54
2023/07/21 08:59:14;;;;;;;1.53;1.43;;;;;;;36.67;45.95;95102.78;5090277;28;20217;-54
2023/07/21 09:01:44;;;;;;;0.80;0.73;;;;;;;36.38;46.36;95102.13;5090583;28;20234;-53
2023/07/21 09:04:20;;;;;;;1.87;0.90;;;;;;;36.58;44.63;95099.16;5065228;28;20189;-54
2023/07/21 09:06:53;;;;;;;1.20;1.10;;;;;;;37.13;44.63;95095.78;5091331;28;20247;-53
2023/07/21 09:09:22;;;;;;;0.77;0.77;;;;;;;37.40;44.14;95095.28;5091864;28;20197;-52
2023/07/21 09:11:51;;;;;;;1.30;1.20;;;;;;;36.88;43.00;95090.28;5090587;28;20190;-52
2023/07/21 09:14:19;;;;;;;1.85;0.50;;;;;;;37.76;41.21;95086.50;5079561;28;20209;-52
2023/07/21 09:16:51;;;;;;;0.40;0.38;;;;;;;38.23;42.48;95087.13;5088731;28;20255;-52
2023/07/21 09:19:20;;;;;;;0.60;0.50;;;;;;;38.85;39.90;95089.91;5091451;28;20278;-52
2023/07/21 09:21:56;;;;;;;1.50;1.40;;;;;;;38.14;40.10;95087.09;5091793;28;20194;-51
2023/07/21 09:24:24;;;;;;;0.40;0.40;;;;;;;38.23;40.98;95084.34;5090892;28;20201;-51
2023/07/21 09:27:11;;;;;;;0.60;0.60;;;;;;;38.53;41.00;95082.84;5091671;28;20599;-51
2023/07/21 09:29:40;;;;;;;1.40;1.33;;;;;;;38.09;40.00;95084.91;5091310;28;20189;-52
2023/07/21 09:32:14;;;;;;;0.68;0.40;;;;;;;38.89;39.95;95076.69;5091860;28;20650;-51
2023/07/21 09:34:56;;;;;;;0.70;0.70;;;;;;;38.26;39.60;95079.91;5091100;28;20227;-52
2023/07/21 09:37:26;;;;;;;0.85;0.85;;;;;;;38.00;40.05;95071.03;5090976;28;20729;-52
2023/07/21 09:39:57;;;;;;;1.02;0.93;;;;;;;38.76;42.26;95068.50;5091271;28;20198;-53
2023/07/21 09:42:26;;;;;;;1.30;1.20;;;;;;;38.32;39.11;95067.84;5090884;28;20190;-52
2023/07/21 09:44:56;;;;;;;0.98;0.68;;;;;;;38.73;38.06;95020.31;5091135;28;20193;-51
2023/07/21 09:47:26;;;;;;;0.80;0.80;;;;;;;38.99;37.10;95065.13;5091436;28;20204;-52
2023/07/21 09:49:58;;;;;;;0.35;0.35;;;;;;;40.14;37.00;95062.56;5091604;28;20198;-52
2023/07/21 09:52:30;;;;;;;0.75;0.75;;;;;;;40.36;36.29;95052.75;5091090;28;20194;-53
2023/07/21 09:55:08;;;;;;;1.35;1.05;;;;;;;38.68;37.21;95058.91;5091619;28;20374;-53
2023/07/21 09:57:42;;;;;;;1.83;1.45;;;;;;;39.14;38.03;95060.53;5091075;28;20277;-53
2023/07/21 10:00:14;;;;;;;2.63;1.42;;;;;;;38.77;36.96;95053.41;5091576;28;20229;-53
2023/07/21 10:02:47;;;;;;;5.30;1.52;;;;;;;38.88;37.57;95041.88;5095005;28;20204;-53
2023/07/21 10:05:16;;;;;;;0.77;0.77;;;;;;;38.58;33.78;95041.44;5094674;28;20215;-53
2023/07/21 10:07:48;;;;;;;0.85;0.85;;;;;;;38.79;31.78;95036.31;5094870;28;20205;-53
2023/07/21 10:10:18;;;;;;;0.80;0.60;;;;;;;39.81;33.08;95034.69;5094486;28;20221;-53
2023/07/21 10:12:50;;;;;;;3.80;0.50;;;;;;;40.15;32.58;95042.66;5094829;28;20198;-53
2023/07/21 10:15:21;;;;;;;0.40;0.32;;;;;;;40.14;32.65;95032.00;5094347;28;20208;-52
2023/07/21 10:17:59;;;;;;;0.30;0.30;;;;;;;40.03;32.69;95028.94;5094029;28;20310;-53
2023/07/21 10:20:39;;;;;;;0.77;0.77;;;;;;;39.14;34.68;95030.03;5094458;28;20198;-53
2023/07/21 10:23:08;;;;;;;0.85;0.85;;;;;;;39.61;32.22;95037.97;5094759;28;20665;-53
2023/07/21 10:25:55;;;;;;;0.75;0.73;;;;;;;40.25;35.52;95032.28;5093604;28;20731;-52
2023/07/21 10:28:25;;;;;;;2.05;1.20;;;;;;;40.08;33.80;94981.88;5088678;28;20285;-52
2023/07/21 10:30:53;;;;;;;1.10;0.43;;;;;;;40.29;33.66;95024.53;5087587;28;20202;-52
2023/07/21 10:33:30;;;;;;;1.55;0.93;;;;;;;40.63;33.59;95021.34;5094481;28;20251;-53
2023/07/21 10:36:14;;;;;;;1.20;1.10;;;;;;;39.92;33.83;95024.63;5094364;28;20204;-52
2023/07/21 10:38:44;;;;;;;1.48;1.17;;;;;;;39.88;34.89;95023.25;5094138;28;20218;-52
2023/07/21 10:41:12;;;;;;;3.40;1.00;;;;;;;40.22;32.74;95022.88;5093910;28;20217;-52
2023/07/21 10:43:40;;;;;;;1.25;1.13;;;;;;;39.68;33.28;95015.44;5093988;28;20197;-52
2023/07/21 10:46:09;;;;;;;0.88;0.88;;;;;;;39.38;34.60;95018.38;5093761;28;20284;-53
2023/07/21 10:48:38;;;;;;;0.50;0.50;;;;;;;40.09;33.59;95013.22;5094070;28;20189;-53
2023/07/21 10:51:09;;;;;;;1.02;0.50;;;;;;;40.36;34.38;95010.31;5094082;28;20640;-53
2023/07/21 10:53:38;;;;;;;1.45;1.35;;;;;;;40.92;31.79;95015.94;5093900;28;20194;-52
2023/07/21 10:56:07;;;;;;;0.40;0.40;;;;;;;40.53;31.74;95005.97;5093689;28;20572;-53
2023/07/21 10:58:36;;;;;;;0.50;0.40;;;;;;;40.50;34.15;95002.13;5093448;28;20213;-53
2023/07/21 11:01:04;;;;;;;0.98;0.70;;;;;;;40.15;34.31;94997.47;5093467;28;20233;-52
2023/07/21 11:03:32;;;;;;;0.65;0.30;;;;;;;40.29;32.02;94994.00;5093106;28;20198;-52
2023/07/21 11:06:02;;;;;;;1.45;1.35;;;;;;;40.37;31.72;94989.66;5093675;28;20228;-52
2023/07/21 11:08:31;;;;;;;1.52;0.40;;;;;;;40.05;33.01;94987.63;5093282;28;20194;-52
2023/07/21 11:10:59;;;;;;;0.25;0.25;;;;;;;39.99;34.43;94981.91;5093404;28;20198;-53
2023/07/21 11:13:28;;;;;;;0.40;0.40;;;;;;;40.01;35.27;94984.97;5093672;28;20665;-53
2023/07/21 11:15:56;;;;;;;0.47;0.40;;;;;;;40.48;31.73;94979.56;5093224;28;20255;-52
2023/07/21 11:18:24;;;;;;;0.50;0.50;;;;;;;40.63;31.55;94971.31;5093538;28;20262;-52
2023/07/21 11:20:54;;;;;;;1.15;0.47;;;;;;;39.70;30.91;94976.91;5088317;28;20201;-56
2023/07/21 11:23:24;;;;;;;1.27;0.43;;;;;;;39.11;33.35;94977.53;5093429;28;20202;-56
2023/07/21 11:26:07;;;;;;;2.15;1.95;;;;;;;39.95;30.72;94979.28;5093580;28;20194;-56
2023/07/21 11:28:37;;;;;;;0.57;0.40;;;;;;;40.20;31.81;94969.06;5067868;28;20193;-56
2023/07/21 11:31:11;;;;;;;2.90;1.85;;;;;;;40.85;31.37;94973.78;5092969;28;20202;-59
2023/07/21 11:33:42;;;;;;;0.50;0.50;;;;;;;41.56;29.57;94968.16;5093279;28;20239;-59
2023/07/21 11:36:14;;;;;;;8.60;0.30;;;;;;;42.31;27.30;94963.63;5092860;28;20575;-59
2023/07/21 11:38:57;;;;;;;0.47;0.47;;;;;;;41.58;26.88;94960.84;5093187;28;20213;-58
2023/07/21 11:41:47;;;;;;;1.23;0.82;;;;;;;41.39;28.00;94914.22;5092905;28;20193;-58
2023/07/21 11:44:20;;;;;;;0.75;0.50;;;;;;;41.48;28.10;94964.22;5092376;28;20251;-59
2023/07/21 11:47:04;;;;;;;0.75;0.75;;;;;;;40.45;27.26;94952.72;5093308;28;20198;-58